Rajiv Gandhi International Airport
VOHS : now visible

Airfield :











YOU CAN JOIN US ON...

 
LOGIN :

Register | Disclaimer

   EN    FR    IT 

 









Legend :    VFR   Marginal VFR   IFR   Intensive IFR   Very Intensive IFR
Visi :
Ceiling :
>= 8 km
>= 3000ft
5 to 8 km
1000 to 3000 ft
1500m to 5 km
500 to 1000 ft
800 to 1500m
200 to 500 ft
< 800m
< 200 ft
Symbols :   Thunderstorms  Fog  Heavy snow  Heavy precipitations  Wind > 20 kt






- Airport Elevation : 0 ft
- IATA code : HYD


VOHS - Rajiv Gandhi International

CURRENT METAR :
  • 150230Z VRB03KT 2000 BR BKN010 SCT015 20/18 Q1019 BECMG 3000

EXPIRED METARs :
  • 150200Z VRB03KT 2000 BR BKN010 19/18 Q1019 BECMG 3000
  • 150130Z VRB02KT 2000 BR SCT010 17/16 Q1018 TEMPO 1500
  • 150100Z VRB02KT 2000 BR SCT010 17/16 Q1018 TEMPO 1500
  • 150030Z VRB03KT 3000 BR SCT010 18/16 Q1018 TEMPO 1500

TAF TAF VOHS
Valid from the 15 at 03:00 until the 15 at 12:00 UTC


150200Z 1503/1512 14006KT 3000 BR SCT010 SCT100
BECMG 1504/1506 15006KT 5000 HZ SCT015
BECMG 1506/1508 6000



MET'MAP, your aeronautical weather chart ! - Copyright ORBIFLY December 2007 - Disclaimer

ORBIFLY MET'MAP TEAM :

Programming & Development : Alexandra Zaïnal
Concept & original design : Baudouin d'Aumeries
Assistance for programming : Marc-Olivier Méhu
Technical & hardware support : Manuel Goepfert

Contact : metmap@orbifly.com




SOURCES & CREDITS :

   NOAA       Earth
Advisory